createdAt,value
2023-05-22T00:02:08.484Z,10.56
2023-05-22T00:07:15.208Z,10.55
2023-05-22T00:12:23.308Z,10.49
2023-05-22T00:17:31.045Z,10.51
2023-05-22T00:22:37.727Z,10.39
2023-05-22T00:27:45.754Z,10.25
2023-05-22T00:32:52.504Z,10.22
2023-05-22T00:38:00.148Z,10.06
2023-05-22T00:43:09.023Z,10.05
2023-05-22T00:48:16.219Z,10.10
2023-05-22T00:53:26.258Z,10.02
2023-05-22T00:58:34.691Z,10.04
2023-05-22T01:03:45.306Z,9.98
2023-05-22T01:08:51.936Z,9.82
2023-05-22T01:14:08.836Z,9.80
2023-05-22T01:19:39.915Z,9.81
2023-05-22T01:25:10.273Z,9.71
2023-05-22T01:30:41.926Z,9.70
2023-05-22T01:35:54.241Z,9.58
2023-05-22T01:41:01.207Z,9.63
2023-05-22T01:46:09.916Z,9.58
2023-05-22T01:51:25.606Z,9.54
2023-05-22T01:56:38.885Z,9.42
2023-05-22T02:01:48.396Z,9.40
2023-05-22T02:06:56.175Z,9.26
2023-05-22T02:12:04.652Z,9.18
2023-05-22T02:17:13.139Z,9.04
2023-05-22T02:22:19.900Z,8.79
2023-05-22T02:27:26.492Z,8.82
2023-05-22T02:32:36.501Z,8.86
2023-05-22T02:37:43.473Z,8.79
2023-05-22T02:42:50.161Z,8.66
2023-05-22T02:47:59.099Z,8.77
2023-05-22T02:53:07.599Z,8.70
2023-05-22T02:58:15.103Z,8.68
2023-05-22T03:03:25.580Z,8.73
2023-05-22T03:08:33.298Z,8.73
2023-05-22T03:13:39.987Z,8.74
2023-05-22T03:18:48.228Z,8.73
2023-05-22T03:23:56.902Z,8.80
2023-05-22T03:29:04.679Z,8.81
2023-05-22T03:34:13.092Z,8.67
2023-05-22T03:39:21.807Z,8.69
2023-05-22T03:44:36.529Z,8.88
2023-05-22T03:49:44.860Z,9.16
2023-05-22T03:54:51.705Z,9.40
2023-05-22T04:00:03.121Z,9.54
2023-05-22T04:05:20.893Z,9.67
2023-05-22T04:10:27.529Z,9.81
2023-05-22T04:15:34.834Z,9.94
2023-05-22T04:20:43.364Z,10.07
2023-05-22T04:25:49.930Z,10.23
2023-05-22T04:31:00.466Z,10.43
2023-05-22T04:36:12.464Z,10.63
2023-05-22T04:41:20.657Z,11.00
2023-05-22T04:46:31.004Z,11.43
2023-05-22T04:51:39.316Z,11.75
2023-05-22T04:56:46.075Z,12.03
2023-05-22T05:01:52.724Z,12.08
2023-05-22T05:07:02.851Z,12.20
2023-05-22T05:12:10.060Z,12.32
2023-05-22T05:17:16.623Z,12.43
2023-05-22T05:22:24.650Z,12.46
2023-05-22T05:27:31.452Z,12.37
2023-05-22T05:32:38.205Z,12.42
2023-05-22T05:38:04.432Z,12.54
2023-05-22T05:43:14.447Z,12.65
2023-05-22T05:48:21.526Z,12.86
2023-05-22T05:53:31.014Z,13.04
2023-05-22T05:58:38.546Z,13.27
2023-05-22T06:04:14.252Z,13.48
2023-05-22T06:09:22.658Z,13.65
2023-05-22T06:14:49.704Z,13.81
2023-05-22T06:19:55.839Z,13.92
2023-05-22T06:25:03.731Z,14.01
2023-05-22T06:30:15.705Z,14.25
2023-05-22T06:35:26.705Z,14.42
2023-05-22T06:40:35.013Z,14.75
2023-05-22T06:45:56.875Z,14.98
2023-05-22T06:51:03.533Z,15.23
2023-05-22T06:56:11.989Z,15.51
2023-05-22T07:01:41.817Z,15.90
2023-05-22T07:06:54.486Z,15.92
2023-05-22T07:12:02.748Z,16.12
2023-05-22T07:17:09.214Z,16.55
2023-05-22T07:22:21.174Z,16.75
2023-05-22T07:27:29.837Z,16.72
2023-05-22T07:32:38.464Z,17.09
2023-05-22T07:37:46.111Z,17.16
2023-05-22T07:42:54.352Z,17.40
2023-05-22T07:48:02.313Z,17.42
2023-05-22T07:53:12.066Z,17.65
2023-05-22T07:58:27.205Z,17.63
2023-05-22T08:03:35.015Z,17.98
2023-05-22T08:08:44.698Z,18.36
2023-05-22T08:13:53.280Z,18.48
2023-05-22T08:19:01.251Z,18.70
2023-05-22T08:24:08.680Z,18.85
2023-05-22T08:29:16.884Z,18.96
2023-05-22T08:34:23.402Z,19.15
2023-05-22T08:39:31.690Z,19.38
2023-05-22T08:44:39.831Z,19.34
2023-05-22T08:49:48.220Z,19.53
2023-05-22T08:54:57.261Z,19.76
2023-05-22T09:00:05.956Z,19.84
2023-05-22T09:05:15.800Z,19.89
2023-05-22T09:10:22.366Z,19.83
2023-05-22T09:15:32.953Z,19.89
2023-05-22T09:20:40.800Z,19.90
2023-05-22T09:25:48.016Z,19.79
2023-05-22T09:30:57.526Z,19.94
2023-05-22T09:36:03.859Z,19.90
2023-05-22T09:41:10.106Z,19.88
2023-05-22T09:46:19.020Z,19.94
2023-05-22T09:51:27.755Z,19.94
2023-05-22T09:56:39.043Z,20.03
2023-05-22T10:01:48.547Z,20.33
2023-05-22T10:06:57.552Z,20.42
2023-05-22T10:12:10.685Z,20.47
2023-05-22T10:17:19.163Z,20.72
2023-05-22T10:22:26.283Z,20.69
2023-05-22T10:27:32.661Z,20.51
2023-05-22T10:32:48.451Z,20.38
2023-05-22T10:37:59.996Z,20.26
2023-05-22T10:43:06.819Z,20.31
2023-05-22T10:48:15.065Z,20.21
2023-05-22T10:53:24.945Z,20.49
2023-05-22T10:58:33.376Z,20.92
2023-05-22T11:03:59.988Z,21.05
2023-05-22T11:09:33.049Z,20.77
2023-05-22T11:14:40.006Z,20.75
2023-05-22T11:19:59.959Z,20.67
2023-05-22T11:25:11.342Z,20.56
2023-05-22T11:30:18.929Z,20.44
2023-05-22T11:35:27.196Z,20.30
2023-05-22T11:40:33.898Z,20.18
2023-05-22T11:45:42.705Z,20.15
2023-05-22T11:50:50.507Z,20.26
2023-05-22T11:55:56.589Z,20.48
2023-05-22T12:01:08.557Z,20.72
2023-05-22T12:06:17.349Z,20.95
2023-05-22T12:11:24.397Z,21.21
2023-05-22T12:16:36.489Z,21.48
2023-05-22T12:21:47.074Z,21.44
2023-05-22T12:26:54.950Z,21.44
2023-05-22T12:32:05.735Z,21.58
2023-05-22T12:37:23.047Z,21.69
2023-05-22T12:42:30.658Z,21.79
2023-05-22T12:47:37.211Z,21.83
2023-05-22T12:52:45.142Z,21.76
2023-05-22T12:57:51.691Z,21.80
2023-05-22T13:02:58.703Z,21.79
2023-05-22T13:08:07.089Z,21.93
2023-05-22T13:13:14.055Z,21.94
2023-05-22T13:18:20.718Z,21.72
2023-05-22T13:23:29.302Z,21.52
2023-05-22T13:28:38.025Z,21.38
2023-05-22T13:33:44.829Z,21.22
2023-05-22T13:38:52.857Z,21.19
2023-05-22T13:43:59.386Z,21.22
2023-05-22T13:49:05.778Z,21.20
2023-05-22T13:54:13.520Z,21.13
2023-05-22T13:59:20.325Z,21.01
2023-05-22T14:04:28.620Z,20.97
2023-05-22T14:09:36.987Z,21.03
2023-05-22T14:14:43.469Z,21.13
2023-05-22T14:19:49.997Z,21.18
2023-05-22T14:24:58.211Z,21.26
2023-05-22T14:30:05.174Z,21.25
2023-05-22T14:35:13.080Z,21.28
2023-05-22T14:40:21.668Z,21.27
2023-05-22T14:45:29.886Z,21.26
2023-05-22T14:50:36.670Z,21.31
2023-05-22T14:55:44.843Z,21.37
2023-05-22T15:00:51.487Z,21.43
2023-05-22T15:05:58.401Z,21.43
2023-05-22T15:11:06.732Z,21.51
2023-05-22T15:16:13.421Z,21.66
2023-05-22T15:21:20.009Z,21.59
2023-05-22T15:26:28.452Z,21.34
2023-05-22T15:31:35.635Z,21.14
2023-05-22T15:36:42.957Z,20.96
2023-05-22T15:42:02.262Z,20.81
2023-05-22T15:47:12.710Z,20.68
2023-05-22T15:52:19.897Z,20.67
2023-05-22T15:57:29.726Z,20.67
2023-05-22T16:02:36.810Z,20.68
2023-05-22T16:07:43.988Z,20.75
2023-05-22T16:12:52.185Z,20.75
2023-05-22T16:17:58.984Z,20.78
2023-05-22T16:23:05.737Z,20.80
2023-05-22T16:28:14.163Z,20.78
2023-05-22T16:33:20.404Z,20.76
2023-05-22T16:38:26.882Z,20.70
2023-05-22T16:43:35.575Z,20.59
2023-05-22T16:48:43.228Z,20.46
2023-05-22T16:53:52.113Z,20.35
2023-05-22T16:59:00.887Z,20.21
2023-05-22T17:04:08.354Z,20.10
2023-05-22T17:09:15.089Z,19.99
2023-05-22T17:14:26.596Z,19.88
2023-05-22T17:19:33.849Z,19.78
2023-05-22T17:24:40.573Z,19.71
2023-05-22T17:29:48.910Z,19.59
2023-05-22T17:34:55.926Z,19.45
2023-05-22T17:40:02.675Z,19.38
2023-05-22T17:45:13.244Z,19.20
2023-05-22T17:50:20.039Z,19.08
2023-05-22T17:55:26.844Z,18.99
2023-05-22T18:00:36.191Z,18.87
2023-05-22T18:05:43.902Z,18.74
2023-05-22T18:10:51.193Z,18.58
2023-05-22T18:16:00.557Z,18.42
2023-05-22T18:21:07.838Z,18.27
2023-05-22T18:26:14.611Z,18.10
2023-05-22T18:31:23.196Z,17.89
2023-05-22T18:36:29.986Z,17.66
2023-05-22T18:41:38.751Z,17.52
2023-05-22T18:46:47.171Z,17.33
2023-05-22T18:51:54.119Z,17.18
2023-05-22T18:57:00.925Z,17.02
2023-05-22T19:02:10.090Z,16.86
2023-05-22T19:07:17.778Z,16.67
2023-05-22T19:12:24.998Z,16.50
2023-05-22T19:17:33.294Z,16.34
2023-05-22T19:22:40.046Z,16.06
2023-05-22T19:27:48.014Z,15.89
2023-05-22T19:32:58.508Z,15.68
2023-05-22T19:38:06.329Z,15.46
2023-05-22T19:43:13.017Z,15.24
2023-05-22T19:48:21.840Z,15.16
2023-05-22T19:53:30.360Z,15.01
2023-05-22T19:58:37.127Z,14.77
2023-05-22T20:03:46.000Z,14.51
2023-05-22T20:08:53.332Z,14.24
2023-05-22T20:14:02.835Z,14.24
2023-05-22T20:19:11.160Z,14.23
2023-05-22T20:24:21.292Z,14.15
2023-05-22T20:29:28.417Z,14.00
2023-05-22T20:34:36.711Z,13.88
2023-05-22T20:39:43.558Z,13.78
2023-05-22T20:44:50.481Z,13.63
2023-05-22T20:49:58.564Z,13.56
2023-05-22T20:55:05.608Z,13.43
2023-05-22T21:00:15.123Z,13.22
2023-05-22T21:05:23.258Z,13.03
2023-05-22T21:10:29.918Z,12.87
2023-05-22T21:15:37.651Z,12.75
2023-05-22T21:20:46.976Z,12.67
2023-05-22T21:25:53.501Z,12.62
2023-05-22T21:30:59.946Z,12.52
2023-05-22T21:36:08.713Z,12.36
2023-05-22T21:41:17.009Z,12.20
2023-05-22T21:46:24.192Z,12.12
2023-05-22T21:51:32.452Z,12.10
2023-05-22T21:56:39.695Z,12.04
2023-05-22T22:01:46.587Z,11.85
2023-05-22T22:06:57.916Z,11.75
2023-05-22T22:12:06.609Z,11.68
2023-05-22T22:17:17.632Z,11.60
2023-05-22T22:22:28.121Z,11.48
2023-05-22T22:27:35.679Z,11.44
2023-05-22T22:32:43.422Z,11.27
2023-05-22T22:37:53.025Z,11.24
2023-05-22T22:42:59.161Z,11.25
2023-05-22T22:48:06.153Z,11.16
2023-05-22T22:53:14.321Z,11.11
2023-05-22T22:58:20.937Z,11.02
2023-05-22T23:03:28.250Z,10.94
2023-05-22T23:08:36.323Z,10.85
2023-05-22T23:13:43.846Z,10.75
2023-05-22T23:18:50.641Z,10.63
2023-05-22T23:23:58.988Z,10.50
2023-05-22T23:29:05.689Z,10.21
2023-05-22T23:34:12.303Z,10.05
2023-05-22T23:39:20.470Z,10.03
2023-05-22T23:44:27.045Z,10.04
2023-05-22T23:49:33.708Z,10.05
2023-05-22T23:54:41.626Z,9.96
2023-05-22T23:59:48.423Z,9.97
